createdAt,value
2022-12-13T00:00:57.355Z,-0.08
2022-12-13T00:05:58.905Z,-0.27
2022-12-13T00:11:01.875Z,-0.15
2022-12-13T00:16:06.322Z,-0.03
2022-12-13T00:21:18.940Z,-0.16
2022-12-13T00:26:22.836Z,0.03
2022-12-13T00:36:48.231Z,-0.18
2022-12-13T00:41:49.829Z,-0.08
2022-12-13T00:46:54.598Z,-0.04
2022-12-13T00:51:56.964Z,-0.06
2022-12-13T00:56:58.859Z,-0.21
2022-12-13T01:02:00.459Z,-0.28
2022-12-13T01:07:02.109Z,-0.06
2022-12-13T01:12:05.572Z,-0.12
2022-12-13T01:17:08.042Z,-0.13
2022-12-13T01:22:11.627Z,-0.25
2022-12-13T01:27:13.174Z,-0.13
2022-12-13T01:32:14.760Z,-0.12
2022-12-13T01:37:17.583Z,-0.21
2022-12-13T01:42:19.170Z,-0.33
2022-12-13T01:47:25.826Z,-0.10
2022-12-13T01:52:29.466Z,-0.18
2022-12-13T01:57:33.228Z,-0.09
2022-12-13T02:02:35.314Z,-0.17
2022-12-13T02:07:38.503Z,-0.09
2022-12-13T02:12:40.737Z,-0.29
2022-12-13T02:18:05.420Z,-0.10
2022-12-13T02:23:31.139Z,-0.36
2022-12-13T02:28:51.633Z,-0.22
2022-12-13T02:34:02.468Z,-0.24
2022-12-13T02:39:16.907Z,-0.26
2022-12-13T02:44:51.728Z,-0.17
2022-12-13T02:49:58.849Z,-0.24
2022-12-13T02:55:07.344Z,-0.16
2022-12-13T03:00:21.425Z,0.02
2022-12-13T03:06:13.841Z,-0.12
2022-12-13T03:11:17.813Z,-0.26
2022-12-13T03:16:40.682Z,-0.63
2022-12-13T03:21:48.547Z,-0.28
2022-12-13T03:26:51.066Z,-0.53
2022-12-13T03:31:53.889Z,-0.46
2022-12-13T03:36:55.545Z,-0.33
2022-12-13T03:41:57.134Z,-1.02
2022-12-13T03:47:00.663Z,-0.54
2022-12-13T03:52:02.687Z,-0.91
2022-12-13T03:57:04.247Z,-0.58
2022-12-13T04:02:05.908Z,-0.52
2022-12-13T04:07:22.014Z,-0.56
2022-12-13T04:12:48.169Z,-0.67
2022-12-13T04:17:51.155Z,-1.06
2022-12-13T04:22:52.958Z,-1.24
2022-12-13T04:27:54.499Z,-1.08
2022-12-13T04:32:56.790Z,-1.11
2022-12-13T04:37:58.426Z,-1.32
2022-12-13T04:42:59.968Z,-1.22
2022-12-13T04:48:01.591Z,-1.35
2022-12-13T04:53:03.399Z,-1.39
2022-12-13T04:58:05.010Z,-1.45
2022-12-13T05:03:08.134Z,-1.44
2022-12-13T05:08:09.694Z,-1.28
2022-12-13T05:13:11.322Z,-1.30
2022-12-13T05:18:12.875Z,-1.30
2022-12-13T05:23:14.524Z,-1.28
2022-12-13T05:28:28.956Z,-1.21
2022-12-13T05:33:30.715Z,-1.30
2022-12-13T05:38:32.537Z,-1.16
2022-12-13T05:43:43.215Z,-1.14
2022-12-13T05:48:45.419Z,-1.34
2022-12-13T05:53:51.560Z,-1.49
2022-12-13T05:58:54.966Z,-1.68
2022-12-13T06:03:56.865Z,-1.72
2022-12-13T06:08:59.785Z,-1.90
2022-12-13T06:14:01.544Z,-1.88
2022-12-13T06:19:04.799Z,-1.86
2022-12-13T06:24:08.666Z,-2.02
2022-12-13T06:29:11.132Z,-2.19
2022-12-13T06:34:13.979Z,-2.28
2022-12-13T06:39:16.977Z,-2.43
2022-12-13T06:44:18.609Z,-2.30
2022-12-13T06:49:20.263Z,-2.04
2022-12-13T06:54:23.868Z,-2.12
2022-12-13T06:59:25.445Z,-2.44
2022-12-13T07:04:29.741Z,-2.52
2022-12-13T07:09:32.299Z,-2.32
2022-12-13T07:14:40.655Z,-2.32
2022-12-13T07:19:43.364Z,-2.40
2022-12-13T07:24:45.291Z,-2.34
2022-12-13T07:29:46.944Z,-2.77
2022-12-13T07:34:48.927Z,-2.49
2022-12-13T07:39:50.525Z,-2.69
2022-12-13T07:44:52.551Z,-2.53
2022-12-13T07:49:54.159Z,-2.56
2022-12-13T07:54:55.766Z,-2.46
2022-12-13T07:59:58.090Z,-2.43
2022-12-13T08:04:59.741Z,-2.40
2022-12-13T08:10:21.303Z,-2.24
2022-12-13T08:15:23.293Z,-2.17
2022-12-13T08:20:24.875Z,-2.27
2022-12-13T08:25:27.103Z,-2.42
2022-12-13T08:30:28.707Z,-2.32
2022-12-13T08:35:33.955Z,-2.14
2022-12-13T08:40:36.646Z,-2.23
2022-12-13T08:45:38.261Z,-2.13
2022-12-13T08:50:39.919Z,-2.21
2022-12-13T08:55:42.043Z,-2.16
2022-12-13T09:00:45.271Z,-2.49
2022-12-13T09:05:46.856Z,-2.36
2022-12-13T09:10:59.195Z,-2.19
2022-12-13T09:16:05.057Z,-2.38
2022-12-13T09:21:22.112Z,-2.38
2022-12-13T09:26:25.481Z,-2.26
2022-12-13T09:31:27.338Z,-2.20
2022-12-13T09:36:29.211Z,-2.14
2022-12-13T09:41:34.320Z,-2.36
2022-12-13T09:46:45.522Z,-2.32
2022-12-13T09:52:01.305Z,-2.38
2022-12-13T09:57:31.353Z,-2.30
2022-12-13T10:02:42.540Z,-2.23
2022-12-13T10:07:44.490Z,-2.00
2022-12-13T10:12:49.044Z,-2.20
2022-12-13T10:17:55.673Z,-2.23
2022-12-13T10:28:25.466Z,-1.95
2022-12-13T10:33:51.525Z,-2.00
2022-12-13T10:38:53.112Z,-1.88
2022-12-13T10:44:17.756Z,-1.84
2022-12-13T10:49:24.587Z,-1.84
2022-12-13T10:54:38.851Z,-1.82
2022-12-13T10:59:51.072Z,-1.71
2022-12-13T11:04:52.660Z,-1.64
2022-12-13T11:09:54.287Z,-1.59
2022-12-13T11:14:55.910Z,-1.79
2022-12-13T11:20:19.938Z,-1.57
2022-12-13T11:25:33.919Z,-1.46
2022-12-13T11:31:09.685Z,-1.56
2022-12-13T11:36:26.595Z,-1.52
2022-12-13T11:41:32.472Z,-1.36
2022-12-13T11:46:40.767Z,-1.28
2022-12-13T11:52:04.916Z,-1.22
2022-12-13T11:57:16.382Z,-1.14
2022-12-13T12:02:29.505Z,-1.10
2022-12-13T12:08:21.019Z,-1.14
2022-12-13T12:13:27.232Z,-1.10
2022-12-13T12:18:28.970Z,-1.01
2022-12-13T12:23:53.878Z,-1.02
2022-12-13T12:29:11.894Z,-1.07
2022-12-13T12:34:27.215Z,-1.00
2022-12-13T12:39:48.510Z,-0.96
2022-12-13T12:44:50.566Z,-0.86
2022-12-13T12:50:18.533Z,-0.79
2022-12-13T12:55:33.222Z,-0.81
2022-12-13T13:00:42.314Z,-0.76
2022-12-13T13:06:03.098Z,-1.28
2022-12-13T13:11:05.693Z,-0.93
2022-12-13T13:16:26.825Z,-1.04
2022-12-13T13:21:34.203Z,-0.80
2022-12-13T13:26:47.889Z,-0.98
2022-12-13T13:32:01.126Z,-0.91
2022-12-13T13:37:05.044Z,-0.80
2022-12-13T13:42:15.600Z,-0.84
2022-12-13T13:47:19.898Z,-0.74
2022-12-13T13:52:25.341Z,-0.73
2022-12-13T14:04:04.252Z,-1.00
2022-12-13T14:09:24.838Z,-0.93
2022-12-13T14:14:49.936Z,-1.02
2022-12-13T14:20:06.325Z,-1.05
2022-12-13T14:25:23.327Z,-1.06
2022-12-13T14:30:27.233Z,-1.13
2022-12-13T14:35:32.493Z,-1.07
2022-12-13T14:40:38.972Z,-1.03
2022-12-13T14:45:40.679Z,-0.91
2022-12-13T14:50:44.807Z,-0.83
2022-12-13T14:56:04.269Z,-1.01
2022-12-13T15:01:37.423Z,-1.12
2022-12-13T15:06:39.518Z,-1.20
2022-12-13T15:11:42.626Z,-1.30
2022-12-13T15:16:55.400Z,-1.30
2022-12-13T15:22:07.563Z,-1.51
2022-12-13T15:27:13.342Z,-1.53
2022-12-13T15:32:19.083Z,-1.58
2022-12-13T15:37:29.659Z,-1.44
2022-12-13T15:42:37.307Z,-1.55
2022-12-13T15:47:44.533Z,-1.62
2022-12-13T15:52:47.935Z,-1.67
2022-12-13T15:57:54.615Z,-1.68
2022-12-13T16:03:12.884Z,-1.80
2022-12-13T16:08:32.806Z,-1.77
2022-12-13T16:13:39.940Z,-1.73
2022-12-13T16:18:55.157Z,-1.86
2022-12-13T16:23:56.745Z,-1.91
2022-12-13T16:29:01.135Z,-1.87
2022-12-13T16:34:03.614Z,-1.90
2022-12-13T16:39:07.649Z,-2.00
2022-12-13T16:44:19.030Z,-1.98
2022-12-13T16:49:30.630Z,-2.03
2022-12-13T16:54:32.172Z,-1.87
2022-12-13T16:59:33.874Z,-1.89
2022-12-13T17:04:39.633Z,-1.94
2022-12-13T17:09:42.167Z,-2.18
2022-12-13T17:14:43.751Z,-2.18
2022-12-13T17:19:45.401Z,-2.23
2022-12-13T17:24:47.013Z,-2.43
2022-12-13T17:29:48.611Z,-2.52
2022-12-13T17:34:53.187Z,-2.50
2022-12-13T17:39:54.729Z,-2.62
2022-12-13T17:44:56.336Z,-2.72
2022-12-13T17:49:57.950Z,-2.82
2022-12-13T17:55:00.926Z,-2.69
2022-12-13T18:00:03.927Z,-2.66
2022-12-13T18:05:17.868Z,-2.63
2022-12-13T18:10:22.583Z,-2.74
2022-12-13T18:15:27.969Z,-2.83
2022-12-13T18:20:30.166Z,-2.74
2022-12-13T18:25:31.983Z,-2.78
2022-12-13T18:30:33.712Z,-3.15
2022-12-13T18:35:35.356Z,-3.12
2022-12-13T18:40:37.471Z,-3.02
2022-12-13T18:45:39.064Z,-3.25
2022-12-13T18:50:45.535Z,-3.30
2022-12-13T18:55:51.029Z,-3.25
2022-12-13T19:00:52.890Z,-3.36
2022-12-13T19:05:58.343Z,-3.69
2022-12-13T19:11:01.881Z,-3.54
2022-12-13T19:16:07.453Z,-3.50
2022-12-13T19:21:15.789Z,-3.70
2022-12-13T19:26:17.884Z,-3.69
2022-12-13T19:31:19.569Z,-4.06
2022-12-13T19:36:21.458Z,-4.11
2022-12-13T19:41:24.647Z,-3.80
2022-12-13T19:46:26.408Z,-3.93
2022-12-13T19:51:28.015Z,-3.83
2022-12-13T19:56:29.716Z,-3.93
2022-12-13T20:01:31.593Z,-3.98
2022-12-13T20:06:33.202Z,-4.01
2022-12-13T20:11:36.129Z,-4.16
2022-12-13T20:16:37.755Z,-4.08
2022-12-13T20:21:39.377Z,-4.37
2022-12-13T20:26:40.996Z,-4.49
2022-12-13T20:31:42.695Z,-4.37
2022-12-13T20:36:50.201Z,-4.37
2022-12-13T20:41:51.851Z,-4.17
2022-12-13T20:46:53.757Z,-4.30
2022-12-13T20:51:55.390Z,-4.09
2022-12-13T20:56:57.092Z,-4.13
2022-12-13T21:01:58.806Z,-4.18
2022-12-13T21:07:02.553Z,-4.26
2022-12-13T21:12:04.319Z,-4.16
2022-12-13T21:17:09.597Z,-4.25
2022-12-13T21:22:12.702Z,-4.31
2022-12-13T21:27:14.564Z,-4.32
2022-12-13T21:32:16.375Z,-4.29
2022-12-13T21:37:18.466Z,-4.30
2022-12-13T21:42:20.365Z,-4.22
2022-12-13T21:47:22.178Z,-4.29
2022-12-13T21:52:23.914Z,-4.38
2022-12-13T21:57:44.601Z,-4.26
2022-12-13T22:02:46.304Z,-4.35
2022-12-13T22:07:48.128Z,-4.43
2022-12-13T22:12:49.811Z,-4.44
2022-12-13T22:17:53.175Z,-4.48
2022-12-13T22:22:54.891Z,-4.58
2022-12-13T22:27:57.283Z,-4.40
2022-12-13T22:32:58.845Z,-4.38
2022-12-13T22:38:01.788Z,-4.45
2022-12-13T22:43:03.521Z,-4.80
2022-12-13T22:48:05.665Z,-4.42
2022-12-13T22:53:07.290Z,-4.38
2022-12-13T22:58:08.838Z,-4.59
2022-12-13T23:03:11.310Z,-4.43
2022-12-13T23:08:12.942Z,-4.38
2022-12-13T23:13:14.578Z,-4.46
2022-12-13T23:18:16.105Z,-4.28
2022-12-13T23:23:17.716Z,-4.37
2022-12-13T23:28:19.319Z,-4.31
2022-12-13T23:33:20.977Z,-4.35
2022-12-13T23:38:22.515Z,-4.51
2022-12-13T23:43:24.112Z,-4.23
2022-12-13T23:48:27.142Z,-4.29
2022-12-13T23:53:28.866Z,-4.25
2022-12-13T23:58:30.571Z,-4.12
